sensor_id;sensor_type;location;lat;lon;timestamp;pressure;altitude;pressure_sealevel;temperature;humidity
13011;BME280;6786;57.632;11.962;2023-04-16T00:00:19;101685.63;;;18.76;43.70
13011;BME280;6786;57.632;11.962;2023-04-16T00:02:47;101676.00;;;18.74;43.71
13011;BME280;6786;57.632;11.962;2023-04-16T00:05:16;101684.78;;;18.76;43.72
13011;BME280;6786;57.632;11.962;2023-04-16T00:07:44;101685.63;;;18.76;43.65
13011;BME280;6786;57.632;11.962;2023-04-16T00:10:12;101675.78;;;18.77;43.66
13011;BME280;6786;57.632;11.962;2023-04-16T00:12:43;101681.13;;;18.77;43.68
13011;BME280;6786;57.632;11.962;2023-04-16T00:15:11;101684.78;;;18.76;43.65
13011;BME280;6786;57.632;11.962;2023-04-16T00:17:39;101691.97;;;18.75;43.76
13011;BME280;6786;57.632;11.962;2023-04-16T00:20:08;101680.38;;;18.75;43.58
13011;BME280;6786;57.632;11.962;2023-04-16T00:22:37;101684.78;;;18.76;43.61
13011;BME280;6786;57.632;11.962;2023-04-16T00:25:05;101687.47;;;18.76;43.71
13011;BME280;6786;57.632;11.962;2023-04-16T00:27:33;101689.28;;;18.75;43.71
13011;BME280;6786;57.632;11.962;2023-04-16T00:30:04;101690.16;;;18.76;43.65
13011;BME280;6786;57.632;11.962;2023-04-16T00:32:32;101684.78;;;18.76;43.70
13011;BME280;6786;57.632;11.962;2023-04-16T00:35:00;101680.28;;;18.76;43.57
13011;BME280;6786;57.632;11.962;2023-04-16T00:37:29;101683.06;;;18.75;43.76
13011;BME280;6786;57.632;11.962;2023-04-16T00:39:57;101683.06;;;18.75;43.71
13011;BME280;6786;57.632;11.962;2023-04-16T00:42:25;101678.69;;;18.74;43.61
13011;BME280;6786;57.632;11.962;2023-04-16T00:44:53;101680.38;;;18.75;43.67
13011;BME280;6786;57.632;11.962;2023-04-16T00:47:23;101679.44;;;18.76;43.72
13011;BME280;6786;57.632;11.962;2023-04-16T00:49:51;101687.47;;;18.76;43.59
13011;BME280;6786;57.632;11.962;2023-04-16T00:52:19;101688.41;;;18.75;43.61
13011;BME280;6786;57.632;11.962;2023-04-16T00:54:48;101683.06;;;18.75;43.63
13011;BME280;6786;57.632;11.962;2023-04-16T00:57:16;101647.34;;;18.51;43.71
13011;BME280;6786;57.632;11.962;2023-04-16T00:59:46;101681.34;;;18.74;43.62
13011;BME280;6786;57.632;11.962;2023-04-16T01:02:15;101684.78;;;18.76;43.74
13011;BME280;6786;57.632;11.962;2023-04-16T01:04:44;101690.16;;;18.76;43.56
13011;BME280;6786;57.632;11.962;2023-04-16T01:07:13;101690.16;;;18.76;43.59
13011;BME280;6786;57.632;11.962;2023-04-16T01:09:41;101695.50;;;18.76;43.63
13011;BME280;6786;57.632;11.962;2023-04-16T01:12:09;101689.28;;;18.75;43.67
13011;BME280;6786;57.632;11.962;2023-04-16T01:14:37;101683.50;;;18.69;43.75
13011;BME280;6786;57.632;11.962;2023-04-16T01:17:05;101693.78;;;18.75;43.63
13011;BME280;6786;57.632;11.962;2023-04-16T01:19:33;101694.63;;;18.75;43.62
13011;BME280;6786;57.632;11.962;2023-04-16T01:22:04;101695.72;;;18.73;43.63
13011;BME280;6786;57.632;11.962;2023-04-16T01:24:33;101695.50;;;18.76;43.56
13011;BME280;6786;57.632;11.962;2023-04-16T01:27:01;101701.69;;;18.76;43.50
13011;BME280;6786;57.632;11.962;2023-04-16T01:29:29;101700.88;;;18.76;43.56
13011;BME280;6786;57.632;11.962;2023-04-16T01:31:57;101708.91;;;18.76;43.50
13011;BME280;6786;57.632;11.962;2023-04-16T01:34:25;101707.06;;;18.76;43.52
13011;BME280;6786;57.632;11.962;2023-04-16T01:36:56;101711.56;;;18.76;43.66
13011;BME280;6786;57.632;11.962;2023-04-16T01:39:25;101714.97;;;18.78;43.53
13011;BME280;6786;57.632;11.962;2023-04-16T01:41:53;101713.28;;;18.77;43.63
13011;BME280;6786;57.632;11.962;2023-04-16T01:44:22;101711.56;;;18.76;43.59
13011;BME280;6786;57.632;11.962;2023-04-16T01:46:51;101711.69;;;18.74;43.63
13011;BME280;6786;57.632;11.962;2023-04-16T01:49:19;101714.25;;;18.76;43.54
13011;BME280;6786;57.632;11.962;2023-04-16T01:51:47;101715.19;;;18.75;43.55
13011;BME280;6786;57.632;11.962;2023-04-16T01:54:15;101707.16;;;18.75;43.51
13011;BME280;6786;57.632;11.962;2023-04-16T01:56:45;101715.19;;;18.75;43.52
13011;BME280;6786;57.632;11.962;2023-04-16T01:59:13;101719.59;;;18.76;43.53
13011;BME280;6786;57.632;11.962;2023-04-16T02:01:41;101711.56;;;18.76;43.48
13011;BME280;6786;57.632;11.962;2023-04-16T02:04:10;101722.28;;;18.76;43.54
13011;BME280;6786;57.632;11.962;2023-04-16T02:06:39;101723.97;;;18.77;43.57
13011;BME280;6786;57.632;11.962;2023-04-16T02:09:07;101706.22;;;18.76;43.56
13011;BME280;6786;57.632;11.962;2023-04-16T02:11:36;101720.44;;;18.76;43.31
13011;BME280;6786;57.632;11.962;2023-04-16T02:14:05;101715.19;;;18.75;43.61
13011;BME280;6786;57.632;11.962;2023-04-16T02:16:34;101716.06;;;18.75;43.50
13011;BME280;6786;57.632;11.962;2023-04-16T02:19:02;101716.94;;;18.76;43.39
13011;BME280;6786;57.632;11.962;2023-04-16T02:21:30;101706.44;;;18.73;43.61
13011;BME280;6786;57.632;11.962;2023-04-16T02:23:58;101719.59;;;18.76;43.42
13011;BME280;6786;57.632;11.962;2023-04-16T02:26:26;101717.88;;;18.75;43.44
13011;BME280;6786;57.632;11.962;2023-04-16T02:28:55;101706.22;;;18.76;43.47
13011;BME280;6786;57.632;11.962;2023-04-16T02:31:24;101706.44;;;18.73;43.45
13011;BME280;6786;57.632;11.962;2023-04-16T02:33:54;101712.72;;;18.72;43.53
13011;BME280;6786;57.632;11.962;2023-04-16T02:36:22;101709.84;;;18.75;43.71
13011;BME280;6786;57.632;11.962;2023-04-16T02:38:50;101716.94;;;18.76;43.42
13011;BME280;6786;57.632;11.962;2023-04-16T02:41:18;101716.06;;;18.75;43.43
13011;BME280;6786;57.632;11.962;2023-04-16T02:43:46;101711.56;;;18.76;43.45
13011;BME280;6786;57.632;11.962;2023-04-16T02:46:14;101713.28;;;18.77;43.42
13011;BME280;6786;57.632;11.962;2023-04-16T02:48:44;101704.47;;;18.75;43.38
13011;BME280;6786;57.632;11.962;2023-04-16T02:51:12;101707.16;;;18.75;43.37
13011;BME280;6786;57.632;11.962;2023-04-16T02:53:40;101713.38;;;18.75;43.34
13011;BME280;6786;57.632;11.962;2023-04-16T02:56:11;101713.50;;;18.74;43.34
13011;BME280;6786;57.632;11.962;2023-04-16T02:58:39;101706.44;;;18.73;43.28
13011;BME280;6786;57.632;11.962;2023-04-16T03:01:08;101707.16;;;18.75;43.44
13011;BME280;6786;57.632;11.962;2023-04-16T03:03:36;101721.41;;;18.75;43.32
13011;BME280;6786;57.632;11.962;2023-04-16T03:06:06;101708.91;;;18.76;43.37
13011;BME280;6786;57.632;11.962;2023-04-16T03:08:34;101715.19;;;18.75;43.41
13011;BME280;6786;57.632;11.962;2023-04-16T03:11:02;101710.72;;;18.75;43.43
13011;BME280;6786;57.632;11.962;2023-04-16T03:13:30;101711.56;;;18.76;43.36
13011;BME280;6786;57.632;11.962;2023-04-16T03:15:58;101714.25;;;18.76;43.25
13011;BME280;6786;57.632;11.962;2023-04-16T03:18:26;101728.47;;;18.76;43.38
13011;BME280;6786;57.632;11.962;2023-04-16T03:20:54;101713.28;;;18.77;43.21
13011;BME280;6786;57.632;11.962;2023-04-16T03:23:24;101723.97;;;18.77;43.30
13011;BME280;6786;57.632;11.962;2023-04-16T03:25:52;101715.94;;;18.77;43.34
13011;BME280;6786;57.632;11.962;2023-04-16T03:28:20;101713.50;;;18.74;43.19
13011;BME280;6786;57.632;11.962;2023-04-16T03:30:52;101719.59;;;18.76;43.24
13011;BME280;6786;57.632;11.962;2023-04-16T03:33:20;101721.41;;;18.75;43.24
13011;BME280;6786;57.632;11.962;2023-04-16T03:35:54;101727.66;;;18.76;43.17
13011;BME280;6786;57.632;11.962;2023-04-16T03:38:24;101721.41;;;18.75;43.25
13011;BME280;6786;57.632;11.962;2023-04-16T03:40:52;101721.41;;;18.75;43.12
13011;BME280;6786;57.632;11.962;2023-04-16T03:43:21;101727.66;;;18.76;43.11
13011;BME280;6786;57.632;11.962;2023-04-16T03:45:49;101731.25;;;18.75;43.13
13011;BME280;6786;57.632;11.962;2023-04-16T03:48:17;101725.91;;;18.75;43.09
13011;BME280;6786;57.632;11.962;2023-04-16T03:50:45;101725.91;;;18.75;43.20
13011;BME280;6786;57.632;11.962;2023-04-16T03:53:14;101733.00;;;18.76;43.17
13011;BME280;6786;57.632;11.962;2023-04-16T03:55:43;101720.56;;;18.75;43.21
13011;BME280;6786;57.632;11.962;2023-04-16T03:58:11;101731.38;;;18.73;43.16
13011;BME280;6786;57.632;11.962;2023-04-16T04:00:40;101737.59;;;18.74;43.12
13011;BME280;6786;57.632;11.962;2023-04-16T04:03:09;101733.94;;;18.75;43.15
13011;BME280;6786;57.632;11.962;2023-04-16T04:05:38;101727.66;;;18.76;43.14
13011;BME280;6786;57.632;11.962;2023-04-16T04:08:07;101731.25;;;18.75;43.12
13011;BME280;6786;57.632;11.962;2023-04-16T04:10:36;101729.44;;;18.75;43.13
13011;BME280;6786;57.632;11.962;2023-04-16T04:13:06;101736.63;;;18.75;43.19
13011;BME280;6786;57.632;11.962;2023-04-16T04:15:34;101730.44;;;18.74;43.13
13011;BME280;6786;57.632;11.962;2023-04-16T04:18:02;101733.00;;;18.76;42.99
13011;BME280;6786;57.632;11.962;2023-04-16T04:20:30;101736.63;;;18.75;42.93
13011;BME280;6786;57.632;11.962;2023-04-16T04:22:58;101736.63;;;18.75;43.03
13011;BME280;6786;57.632;11.962;2023-04-16T04:25:27;101733.94;;;18.75;42.97
13011;BME280;6786;57.632;11.962;2023-04-16T04:27:55;101736.63;;;18.75;42.98
13011;BME280;6786;57.632;11.962;2023-04-16T04:30:24;101744.53;;;18.76;43.04
13011;BME280;6786;57.632;11.962;2023-04-16T04:32:53;101740.81;;;18.79;42.94
13011;BME280;6786;57.632;11.962;2023-04-16T04:35:21;101737.16;;;18.80;42.99
13011;BME280;6786;57.632;11.962;2023-04-16T04:37:49;101730.59;;;18.84;43.13
13011;BME280;6786;57.632;11.962;2023-04-16T04:40:17;101730.59;;;18.84;43.07
13011;BME280;6786;57.632;11.962;2023-04-16T04:42:46;101735.97;;;18.84;43.14
13011;BME280;6786;57.632;11.962;2023-04-16T04:45:14;101732.13;;;18.88;43.25
13011;BME280;6786;57.632;11.962;2023-04-16T04:47:44;101721.84;;;18.82;43.66
13011;BME280;6786;57.632;11.962;2023-04-16T04:50:12;101742.72;;;18.89;43.54
13011;BME280;6786;57.632;11.962;2023-04-16T04:52:40;101742.63;;;18.91;43.27
13011;BME280;6786;57.632;11.962;2023-04-16T04:55:08;101737.25;;;18.91;43.54
13011;BME280;6786;57.632;11.962;2023-04-16T04:57:37;101736.28;;;18.92;43.68
13011;BME280;6786;57.632;11.962;2023-04-16T05:00:06;101746.03;;;18.93;43.68
13011;BME280;6786;57.632;11.962;2023-04-16T05:02:34;101742.63;;;18.91;43.72
13011;BME280;6786;57.632;11.962;2023-04-16T05:05:05;101738.97;;;18.92;44.00
13011;BME280;6786;57.632;11.962;2023-04-16T05:07:33;101738.75;;;18.95;44.00
13011;BME280;6786;57.632;11.962;2023-04-16T05:10:01;101743.03;;;18.97;43.98
13011;BME280;6786;57.632;11.962;2023-04-16T05:12:29;101745.38;;;19.02;44.00
13011;BME280;6786;57.632;11.962;2023-04-16T05:14:58;101743.44;;;19.04;44.01
13011;BME280;6786;57.632;11.962;2023-04-16T05:17:26;101739.78;;;19.05;43.92
13011;BME280;6786;57.632;11.962;2023-04-16T05:19:54;101741.75;;;19.03;43.85
13011;BME280;6786;57.632;11.962;2023-04-16T05:22:24;101744.53;;;19.01;43.74
13011;BME280;6786;57.632;11.962;2023-04-16T05:24:52;101747.53;;;18.97;43.74
13011;BME280;6786;57.632;11.962;2023-04-16T05:27:21;101746.03;;;18.93;43.83
13011;BME280;6786;57.632;11.962;2023-04-16T05:29:49;101742.63;;;18.91;43.77
13011;BME280;6786;57.632;11.962;2023-04-16T05:32:18;101746.47;;;18.87;43.85
13011;BME280;6786;57.632;11.962;2023-04-16T05:34:46;101749.91;;;18.89;43.84
13011;BME280;6786;57.632;11.962;2023-04-16T05:37:14;101748.19;;;18.88;43.68
13011;BME280;6786;57.632;11.962;2023-04-16T05:39:43;101750.22;;;18.84;43.71
13011;BME280;6786;57.632;11.962;2023-04-16T05:42:12;101752.03;;;18.84;43.70
13011;BME280;6786;57.632;11.962;2023-04-16T05:44:40;101757.41;;;18.84;43.63
13011;BME280;6786;57.632;11.962;2023-04-16T05:47:08;101752.03;;;18.84;43.56
13011;BME280;6786;57.632;11.962;2023-04-16T05:49:36;101748.63;;;18.82;43.50
13011;BME280;6786;57.632;11.962;2023-04-16T05:52:04;101754.81;;;18.82;43.38
13011;BME280;6786;57.632;11.962;2023-04-16T05:54:33;101755.69;;;18.83;43.54
13011;BME280;6786;57.632;11.962;2023-04-16T05:57:02;101762.03;;;18.82;43.55
13011;BME280;6786;57.632;11.962;2023-04-16T05:59:31;101755.81;;;18.81;43.53
13011;BME280;6786;57.632;11.962;2023-04-16T06:02:00;101765.66;;;18.81;43.47
13011;BME280;6786;57.632;11.962;2023-04-16T06:04:28;101771.00;;;18.81;43.51
13011;BME280;6786;57.632;11.962;2023-04-16T06:06:56;101763.84;;;18.81;43.38
13011;BME280;6786;57.632;11.962;2023-04-16T06:09:24;101767.38;;;18.82;43.42
13011;BME280;6786;57.632;11.962;2023-04-16T06:11:52;101768.31;;;18.81;43.50
13011;BME280;6786;57.632;11.962;2023-04-16T06:14:22;101774.56;;;18.81;43.39
13011;BME280;6786;57.632;11.962;2023-04-16T06:16:50;101769.09;;;18.83;43.27
13011;BME280;6786;57.632;11.962;2023-04-16T06:19:18;101764.72;;;18.82;43.36
13011;BME280;6786;57.632;11.962;2023-04-16T06:21:46;101771.75;;;18.83;43.30
13011;BME280;6786;57.632;11.962;2023-04-16T06:24:14;101777.13;;;18.83;43.23
13011;BME280;6786;57.632;11.962;2023-04-16T06:26:44;101772.63;;;18.83;43.35
13011;BME280;6786;57.632;11.962;2023-04-16T06:29:12;101771.75;;;18.83;43.31
13011;BME280;6786;57.632;11.962;2023-04-16T06:31:42;101771.75;;;18.83;43.19
13011;BME280;6786;57.632;11.962;2023-04-16T06:34:10;101773.69;;;18.81;43.30
13011;BME280;6786;57.632;11.962;2023-04-16T06:36:39;101777.34;;;18.80;43.14
13011;BME280;6786;57.632;11.962;2023-04-16T06:39:07;101773.91;;;18.78;43.20
13011;BME280;6786;57.632;11.962;2023-04-16T06:41:35;101779.03;;;18.81;43.17
13011;BME280;6786;57.632;11.962;2023-04-16T06:44:04;101777.34;;;18.80;43.22
13011;BME280;6786;57.632;11.962;2023-04-16T06:46:32;101777.34;;;18.80;43.11
13011;BME280;6786;57.632;11.962;2023-04-16T06:49:02;101782.69;;;18.80;43.14
13011;BME280;6786;57.632;11.962;2023-04-16T06:51:30;101789.03;;;18.79;43.12
13011;BME280;6786;57.632;11.962;2023-04-16T06:53:58;101791.72;;;18.79;43.16
13011;BME280;6786;57.632;11.962;2023-04-16T06:56:26;101792.53;;;18.79;43.03
13011;BME280;6786;57.632;11.962;2023-04-16T06:58:54;101791.72;;;18.79;43.17
13011;BME280;6786;57.632;11.962;2023-04-16T07:01:24;101797.06;;;18.79;43.16
13011;BME280;6786;57.632;11.962;2023-04-16T07:03:53;101798.97;;;18.77;43.03
13011;BME280;6786;57.632;11.962;2023-04-16T07:06:23;101807.78;;;18.79;42.99
13011;BME280;6786;57.632;11.962;2023-04-16T07:08:52;101805.09;;;18.79;42.96
13011;BME280;6786;57.632;11.962;2023-04-16T07:11:20;101806.03;;;18.78;43.04
13011;BME280;6786;57.632;11.962;2023-04-16T07:13:48;101808.00;;;18.76;43.13
13011;BME280;6786;57.632;11.962;2023-04-16T07:16:18;101813.13;;;18.79;42.83
13011;BME280;6786;57.632;11.962;2023-04-16T07:18:47;101808.72;;;18.78;42.90
13011;BME280;6786;57.632;11.962;2023-04-16T07:21:15;101810.56;;;18.77;42.97
13011;BME280;6786;57.632;11.962;2023-04-16T07:23:44;101797.69;;;18.70;42.83
13011;BME280;6786;57.632;11.962;2023-04-16T07:26:12;101805.19;;;18.77;42.82
13011;BME280;6786;57.632;11.962;2023-04-16T07:28:41;101804.34;;;18.77;42.90
13011;BME280;6786;57.632;11.962;2023-04-16T07:31:09;101809.69;;;18.77;42.95
13011;BME280;6786;57.632;11.962;2023-04-16T07:33:37;101799.19;;;18.74;43.00
13011;BME280;6786;57.632;11.962;2023-04-16T07:36:05;101799.19;;;18.74;42.84
13011;BME280;6786;57.632;11.962;2023-04-16T07:38:34;101794.69;;;18.74;42.89
13011;BME280;6786;57.632;11.962;2023-04-16T07:41:03;101803.56;;;18.75;42.91
13011;BME280;6786;57.632;11.962;2023-04-16T07:43:31;101809.69;;;18.77;42.91
13011;BME280;6786;57.632;11.962;2023-04-16T07:46:00;101799.94;;;18.76;42.94
13011;BME280;6786;57.632;11.962;2023-04-16T07:48:28;101801.75;;;18.75;43.00
13011;BME280;6786;57.632;11.962;2023-04-16T07:50:57;101798.22;;;18.75;43.00
13011;BME280;6786;57.632;11.962;2023-04-16T07:53:25;101801.66;;;18.77;42.94
13011;BME280;6786;57.632;11.962;2023-04-16T07:55:53;101806.25;;;18.75;42.95
13011;BME280;6786;57.632;11.962;2023-04-16T07:58:22;101801.75;;;18.75;42.83
13011;BME280;6786;57.632;11.962;2023-04-16T08:00:52;101806.25;;;18.75;42.94
13011;BME280;6786;57.632;11.962;2023-04-16T08:03:20;101802.84;;;18.73;42.76
13011;BME280;6786;57.632;11.962;2023-04-16T08:05:49;101806.25;;;18.75;42.82
13011;BME280;6786;57.632;11.962;2023-04-16T08:08:17;101816.97;;;18.75;42.76
13011;BME280;6786;57.632;11.962;2023-04-16T08:10:45;101812.59;;;18.74;42.80
13011;BME280;6786;57.632;11.962;2023-04-16T08:13:13;101825.97;;;18.74;42.84
13011;BME280;6786;57.632;11.962;2023-04-16T08:15:43;101818.91;;;18.73;42.80
13011;BME280;6786;57.632;11.962;2023-04-16T08:18:12;101823.19;;;18.75;42.87
13011;BME280;6786;57.632;11.962;2023-04-16T08:20:42;101824.28;;;18.73;42.78
13011;BME280;6786;57.632;11.962;2023-04-16T08:23:10;101836.47;;;18.77;42.72
13011;BME280;6786;57.632;11.962;2023-04-16T08:25:38;101829.63;;;18.73;42.64
13011;BME280;6786;57.632;11.962;2023-04-16T08:28:07;101837.56;;;18.74;42.67
13011;BME280;6786;57.632;11.962;2023-04-16T08:30:35;101843.75;;;18.75;42.66
13011;BME280;6786;57.632;11.962;2023-04-16T08:33:05;101849.09;;;18.75;42.80
13011;BME280;6786;57.632;11.962;2023-04-16T08:35:33;101843.75;;;18.75;42.73
13011;BME280;6786;57.632;11.962;2023-04-16T08:38:02;101842.03;;;18.74;42.78
13011;BME280;6786;57.632;11.962;2023-04-16T08:40:31;101852.53;;;18.77;42.76
13011;BME280;6786;57.632;11.962;2023-04-16T08:43:02;101857.19;;;19.00;42.69
13011;BME280;6786;57.632;11.962;2023-04-16T08:45:34;101858.78;;;19.02;42.83
13011;BME280;6786;57.632;11.962;2023-04-16T08:48:05;101859.63;;;19.03;42.80
13011;BME280;6786;57.632;11.962;2023-04-16T08:50:34;101854.50;;;19.00;42.77
13011;BME280;6786;57.632;11.962;2023-04-16T08:53:04;101856.19;;;19.01;42.68
13011;BME280;6786;57.632;11.962;2023-04-16T08:55:36;101865.44;;;18.97;42.64
13011;BME280;6786;57.632;11.962;2023-04-16T08:58:08;101853.94;;;18.95;42.71
13011;BME280;6786;57.632;11.962;2023-04-16T09:00:38;101860.50;;;18.91;42.57
13011;BME280;6786;57.632;11.962;2023-04-16T09:03:08;101861.53;;;18.88;42.68
13011;BME280;6786;57.632;11.962;2023-04-16T09:05:37;101860.06;;;18.84;42.56
13011;BME280;6786;57.632;11.962;2023-04-16T09:08:05;101866.28;;;18.85;42.72
13011;BME280;6786;57.632;11.962;2023-04-16T09:10:34;101869.91;;;18.84;42.58
13011;BME280;6786;57.632;11.962;2023-04-16T09:13:02;101871.84;;;18.82;42.57
13011;BME280;6786;57.632;11.962;2023-04-16T09:15:31;101878.16;;;18.81;42.71
13011;BME280;6786;57.632;11.962;2023-04-16T09:18:00;101880.00;;;18.80;42.55
13011;BME280;6786;57.632;11.962;2023-04-16T09:20:30;101873.75;;;18.80;42.69
13011;BME280;6786;57.632;11.962;2023-04-16T09:22:58;101882.78;;;18.79;42.48
13011;BME280;6786;57.632;11.962;2023-04-16T09:25:26;101876.53;;;18.78;42.58
13011;BME280;6786;57.632;11.962;2023-04-16T09:27:55;101877.63;;;18.76;42.65
13011;BME280;6786;57.632;11.962;2023-04-16T09:30:24;101875.69;;;18.78;42.53
13011;BME280;6786;57.632;11.962;2023-04-16T09:33:12;101872.28;;;18.76;42.32
13011;BME280;6786;57.632;11.962;2023-04-16T09:35:47;101875.88;;;18.75;42.62
13011;BME280;6786;57.632;11.962;2023-04-16T09:38:16;101886.38;;;18.78;42.53
13011;BME280;6786;57.632;11.962;2023-04-16T09:40:45;101882.00;;;18.77;42.51
13011;BME280;6786;57.632;11.962;2023-04-16T09:43:15;101884.69;;;18.77;42.51
13011;BME280;6786;57.632;11.962;2023-04-16T09:45:49;101879.31;;;18.77;42.56
13011;BME280;6786;57.632;11.962;2023-04-16T09:48:27;101877.63;;;18.76;42.38
13011;BME280;6786;57.632;11.962;2023-04-16T09:50:57;101882.13;;;18.75;42.46
13011;BME280;6786;57.632;11.962;2023-04-16T09:53:27;101888.34;;;18.76;42.40
13011;BME280;6786;57.632;11.962;2023-04-16T09:55:56;101876.09;;;18.72;42.59
13011;BME280;6786;57.632;11.962;2023-04-16T09:58:25;101888.34;;;18.76;42.48
13011;BME280;6786;57.632;11.962;2023-04-16T10:00:54;101891.75;;;18.78;42.41
13011;BME280;6786;57.632;11.962;2023-04-16T10:03:30;101886.59;;;18.75;42.26
13011;BME280;6786;57.632;11.962;2023-04-16T10:06:06;101901.53;;;18.79;42.36
13011;BME280;6786;57.632;11.962;2023-04-16T10:08:35;101890.03;;;18.77;42.37
13011;BME280;6786;57.632;11.962;2023-04-16T10:11:04;101891.75;;;18.78;42.47
13011;BME280;6786;57.632;11.962;2023-04-16T10:13:32;101888.34;;;18.76;42.42
13011;BME280;6786;57.632;11.962;2023-04-16T10:16:00;101890.03;;;18.77;42.38
13011;BME280;6786;57.632;11.962;2023-04-16T10:18:30;101895.41;;;18.77;42.42
13011;BME280;6786;57.632;11.962;2023-04-16T10:20:58;101892.72;;;18.77;42.43
13011;BME280;6786;57.632;11.962;2023-04-16T10:23:29;101888.34;;;18.76;42.36
13011;BME280;6786;57.632;11.962;2023-04-16T10:25:59;101891.00;;;18.76;42.47
13011;BME280;6786;57.632;11.962;2023-04-16T10:28:28;101892.81;;;18.75;42.38
13011;BME280;6786;57.632;11.962;2023-04-16T10:30:57;101888.34;;;18.76;42.37
13011;BME280;6786;57.632;11.962;2023-04-16T10:33:27;101893.69;;;18.76;42.32
13011;BME280;6786;57.632;11.962;2023-04-16T10:36:09;101889.16;;;18.76;42.17
13011;BME280;6786;57.632;11.962;2023-04-16T10:38:40;101882.97;;;18.76;42.35
13011;BME280;6786;57.632;11.962;2023-04-16T10:41:08;101883.81;;;18.76;42.38
13011;BME280;6786;57.632;11.962;2023-04-16T10:43:39;101798.50;;;18.33;42.22
13011;BME280;6786;57.632;11.962;2023-04-16T10:46:19;101877.63;;;18.76;42.13
13011;BME280;6786;57.632;11.962;2023-04-16T10:48:48;101877.63;;;18.76;42.21
13011;BME280;6786;57.632;11.962;2023-04-16T10:51:25;101875.88;;;18.75;42.17
13011;BME280;6786;57.632;11.962;2023-04-16T10:53:58;101873.22;;;18.75;42.21
13011;BME280;6786;57.632;11.962;2023-04-16T10:56:31;101870.53;;;18.75;42.30
13011;BME280;6786;57.632;11.962;2023-04-16T10:59:00;101866.91;;;18.76;42.31
13011;BME280;6786;57.632;11.962;2023-04-16T11:01:30;101865.28;;;18.73;42.31
13011;BME280;6786;57.632;11.962;2023-04-16T11:04:01;101868.63;;;18.77;42.25
13011;BME280;6786;57.632;11.962;2023-04-16T11:09:57;101879.13;;;18.80;41.94
13011;BME280;6786;57.632;11.962;2023-04-16T11:12:32;101880.81;;;18.81;42.05
13011;BME280;6786;57.632;11.962;2023-04-16T11:15:01;101878.03;;;18.82;42.17
13011;BME280;6786;57.632;11.962;2023-04-16T11:17:32;101874.63;;;18.80;42.18
13011;BME280;6786;57.632;11.962;2023-04-16T11:20:00;101863.06;;;18.80;42.07
13011;BME280;6786;57.632;11.962;2023-04-16T11:22:39;101875.56;;;18.79;42.00
13011;BME280;6786;57.632;11.962;2023-04-16T11:25:10;101870.31;;;18.78;42.00
13011;BME280;6786;57.632;11.962;2023-04-16T11:27:38;101879.13;;;18.80;41.97
13011;BME280;6786;57.632;11.962;2023-04-16T11:30:08;101875.56;;;18.79;42.06
13011;BME280;6786;57.632;11.962;2023-04-16T11:32:37;101872.06;;;18.79;42.07
13011;BME280;6786;57.632;11.962;2023-04-16T11:35:13;101864.22;;;18.76;41.98
13011;BME280;6786;57.632;11.962;2023-04-16T11:37:41;101870.31;;;18.78;42.13
13011;BME280;6786;57.632;11.962;2023-04-16T11:40:11;101859.81;;;18.75;41.98
13011;BME280;6786;57.632;11.962;2023-04-16T11:42:40;101870.31;;;18.78;42.05
13011;BME280;6786;57.632;11.962;2023-04-16T11:45:10;101864.97;;;18.78;42.18
13011;BME280;6786;57.632;11.962;2023-04-16T11:47:43;101864.22;;;18.76;42.19
13011;BME280;6786;57.632;11.962;2023-04-16T11:50:17;101872.06;;;18.79;42.20
13011;BME280;6786;57.632;11.962;2023-04-16T11:52:46;101793.88;;;18.35;42.12
13011;BME280;6786;57.632;11.962;2023-04-16T11:55:16;101871.28;;;18.77;42.08
13011;BME280;6786;57.632;11.962;2023-04-16T11:57:44;101871.28;;;18.77;42.23
13011;BME280;6786;57.632;11.962;2023-04-16T12:00:13;101872.06;;;18.79;42.25
13011;BME280;6786;57.632;11.962;2023-04-16T12:02:43;101874.84;;;18.77;42.24
13011;BME280;6786;57.632;11.962;2023-04-16T12:05:29;101866.91;;;18.76;42.09
13011;BME280;6786;57.632;11.962;2023-04-16T12:07:58;101876.66;;;18.77;42.20
13011;BME280;6786;57.632;11.962;2023-04-16T12:10:29;101872.28;;;18.76;42.14
13011;BME280;6786;57.632;11.962;2023-04-16T12:13:09;101872.28;;;18.76;41.99
13011;BME280;6786;57.632;11.962;2023-04-16T12:15:48;101868.63;;;18.77;41.92
13011;BME280;6786;57.632;11.962;2023-04-16T12:18:18;101864.97;;;18.78;42.17
13011;BME280;6786;57.632;11.962;2023-04-16T12:20:48;101870.31;;;18.78;42.05
13011;BME280;6786;57.632;11.962;2023-04-16T12:23:24;101881.03;;;18.78;42.04
13011;BME280;6786;57.632;11.962;2023-04-16T12:25:55;101870.31;;;18.78;42.14
13011;BME280;6786;57.632;11.962;2023-04-16T12:28:30;101877.63;;;18.76;42.03
13011;BME280;6786;57.632;11.962;2023-04-16T12:31:00;101872.28;;;18.76;42.17
13011;BME280;6786;57.632;11.962;2023-04-16T12:33:29;101871.41;;;18.75;42.10
13011;BME280;6786;57.632;11.962;2023-04-16T12:35:58;101864.22;;;18.76;41.96
13011;BME280;6786;57.632;11.962;2023-04-16T12:38:27;101869.59;;;18.76;41.90
13011;BME280;6786;57.632;11.962;2023-04-16T12:40:57;101867.13;;;18.73;41.91
13011;BME280;6786;57.632;11.962;2023-04-16T12:43:28;101871.41;;;18.75;41.84
13011;BME280;6786;57.632;11.962;2023-04-16T12:45:56;101865.16;;;18.75;41.79
13011;BME280;6786;57.632;11.962;2023-04-16T12:48:27;101863.56;;;18.72;41.74
13011;BME280;6786;57.632;11.962;2023-04-16T12:50:55;101865.16;;;18.75;41.77
13011;BME280;6786;57.632;11.962;2023-04-16T12:53:24;101859.81;;;18.75;41.76
13011;BME280;6786;57.632;11.962;2023-04-16T12:55:52;101865.16;;;18.75;41.70
13011;BME280;6786;57.632;11.962;2023-04-16T12:58:22;101864.22;;;18.76;41.59
13011;BME280;6786;57.632;11.962;2023-04-16T13:00:50;101859.81;;;18.75;41.62
13011;BME280;6786;57.632;11.962;2023-04-16T13:03:19;101856.41;;;18.73;41.72